Time;durP1;ratioP1;P1;durP2;ratioP2;P2;SDS_P1;SDS_P2;PMS_P1;PMS_P2;Temp;Humidity;BMP_temperature;BMP_pressure;BME280_temperature;BME280_humidity;BME280_pressure;Samples;Min_cycle;Max_cycle;Signal;HPM_P1;HPM_P2
2023/03/28 00:00:25;;;;;;;14.27;2.80;;;;;;;17.59;57.92;101331.03;5071624;28;20179;-63
2023/03/28 00:02:50;;;;;;;7.07;2.70;;;;;;;17.59;58.13;101325.31;5053560;28;20198;-63
2023/03/28 00:05:16;;;;;;;5.73;2.50;;;;;;;17.59;57.82;101329.03;5081578;28;20182;-63
2023/03/28 00:07:42;;;;;;;7.97;2.40;;;;;;;17.59;57.80;101337.59;5076211;28;20227;-63
2023/03/28 00:10:08;;;;;;;4.77;2.20;;;;;;;17.59;57.78;101337.59;5071105;28;20163;-63
2023/03/28 00:12:33;;;;;;;8.93;2.40;;;;;;;17.60;57.74;101332.72;5070565;28;20989;-63
2023/03/28 00:14:59;;;;;;;11.50;2.60;;;;;;;17.57;57.98;101337.13;5070819;28;20413;-63
2023/03/28 00:17:25;;;;;;;9.30;2.43;;;;;;;17.59;57.85;101343.31;5066575;28;20219;-63
2023/03/28 00:19:52;;;;;;;8.00;2.63;;;;;;;17.57;58.05;101339.97;5052650;28;20809;-63
2023/03/28 00:22:19;;;;;;;5.00;2.10;;;;;;;17.56;58.03;101346.84;5067111;28;20187;-63
2023/03/28 00:24:47;;;;;;;7.57;1.90;;;;;;;17.56;57.93;101352.56;5070374;28;20817;-63
2023/03/28 00:27:14;;;;;;;7.47;2.90;;;;;;;17.56;58.04;101351.72;5068549;28;20500;-63
2023/03/28 00:29:39;;;;;;;6.97;2.93;;;;;;;17.59;58.09;101354.72;5000582;28;20533;-63
2023/03/28 00:32:05;;;;;;;11.60;2.97;;;;;;;17.59;58.05;101357.56;5060219;28;20465;-63
2023/03/28 00:34:30;;;;;;;5.40;2.03;;;;;;;17.57;58.17;101364.81;5070954;28;20168;-63
2023/03/28 00:36:56;;;;;;;10.77;2.30;;;;;;;17.53;57.92;101361.84;5070769;28;20191;-63
2023/03/28 00:39:21;;;;;;;7.60;2.43;;;;;;;17.54;58.10;101359.78;5070024;28;20171;-63
2023/03/28 00:41:46;;;;;;;7.13;2.67;;;;;;;17.55;57.96;101358.63;5049034;28;20228;-63
2023/03/28 00:44:43;;;;;;;5.13;2.10;;;;;;;17.51;58.16;101358.47;5070575;28;20233;-63
2023/03/28 00:47:26;;;;;;;6.07;2.30;;;;;;;17.53;58.10;101373.25;5053087;28;20183;-63
2023/03/28 00:49:58;;;;;;;9.87;2.90;;;;;;;17.51;58.08;101364.19;5050428;28;20390;-63
2023/03/28 00:52:24;;;;;;;8.17;2.50;;;;;;;17.53;58.14;101364.69;5028386;28;21022;-63
2023/03/28 00:54:50;;;;;;;7.47;2.30;;;;;;;17.56;57.73;101363.97;5026740;28;20420;-63
2023/03/28 00:57:15;;;;;;;9.20;2.00;;;;;;;17.52;58.03;101360.16;5011250;28;20558;-63
2023/03/28 00:59:41;;;;;;;6.90;2.37;;;;;;;17.55;57.73;101365.16;5027376;28;20176;-63
2023/03/28 01:02:06;;;;;;;7.50;2.40;;;;;;;17.54;57.93;101360.66;5030390;28;20176;-63
2023/03/28 01:04:37;;;;;;;7.23;2.47;;;;;;;17.56;58.08;101366.81;5029423;28;20647;-63
2023/03/28 01:07:03;;;;;;;6.67;2.33;;;;;;;17.56;58.14;101360.31;5026883;28;20205;-63
2023/03/28 01:09:29;;;;;;;5.47;2.33;;;;;;;17.56;58.13;101363.97;5030486;28;20415;-63
2023/03/28 01:11:55;;;;;;;6.83;2.70;;;;;;;17.57;58.03;101367.69;5026685;28;20200;-63
2023/03/28 01:14:22;;;;;;;5.40;2.37;;;;;;;17.54;58.01;101374.91;5030739;28;20252;-63
2023/03/28 01:16:48;;;;;;;5.50;1.83;;;;;;;17.53;58.24;101372.41;5028822;28;20451;-63
2023/03/28 01:19:42;;;;;;;7.20;2.27;;;;;;;17.55;58.05;101370.88;5015218;28;20451;-63
2023/03/28 01:22:32;;;;;;;11.63;2.10;;;;;;;17.57;58.29;101371.38;5013465;28;20534;-63
2023/03/28 01:24:57;;;;;;;6.00;1.80;;;;;;;17.54;57.82;101377.78;5029232;28;20411;-63
2023/03/28 01:27:43;;;;;;;6.57;2.23;;;;;;;17.52;58.26;101385.00;5028518;28;21172;-63
2023/03/28 01:30:37;;;;;;;7.00;2.03;;;;;;;17.52;58.17;101385.00;5029241;28;20234;-63
2023/03/28 01:33:42;;;;;;;4.83;1.80;;;;;;;17.50;58.00;101373.94;5028830;28;20497;-63
2023/03/28 01:36:35;;;;;;;5.87;1.93;;;;;;;17.47;58.21;101374.66;5029219;28;21009;-63
2023/03/28 01:39:17;;;;;;;7.07;2.10;;;;;;;17.49;58.20;101377.13;5028050;28;20407;-63
2023/03/28 01:42:01;;;;;;;5.87;2.00;;;;;;;17.50;58.05;101382.50;5028090;28;20411;-63
2023/03/28 01:45:01;;;;;;;6.30;1.63;;;;;;;17.52;58.22;101382.16;5017366;28;21072;-63
2023/03/28 01:47:45;;;;;;;9.00;2.10;;;;;;;17.46;58.13;101378.66;5009163;28;20397;-63
2023/03/28 01:50:29;;;;;;;4.20;1.63;;;;;;;17.49;58.27;101375.13;5021575;28;20545;-63
2023/03/28 01:53:28;;;;;;;7.00;1.73;;;;;;;17.47;58.04;101380.38;5027456;28;20820;-63
2023/03/28 01:55:56;;;;;;;4.20;1.90;;;;;;;17.47;58.43;101373.81;5032064;28;20458;-63
2023/03/28 01:58:30;;;;;;;5.00;1.80;;;;;;;17.47;58.09;101385.22;5037815;28;20413;-63
2023/03/28 02:01:04;;;;;;;4.40;1.73;;;;;;;17.48;58.09;101382.03;5043040;28;20540;-63
2023/03/28 02:03:35;;;;;;;5.77;1.60;;;;;;;17.45;58.37;101382.72;5032337;28;20433;-63
2023/03/28 02:06:01;;;;;;;4.53;1.77;;;;;;;17.47;58.23;101386.06;5043205;28;20446;-63
2023/03/28 02:08:28;;;;;;;8.37;2.27;;;;;;;17.47;57.86;101380.38;5032462;28;20399;-63
2023/03/28 02:10:54;;;;;;;4.50;1.60;;;;;;;17.47;58.05;101386.06;5048778;28;20180;-63
2023/03/28 02:13:22;;;;;;;4.63;1.50;;;;;;;17.50;57.63;101385.34;5031749;28;20425;-63
2023/03/28 02:15:49;;;;;;;5.30;2.63;;;;;;;17.48;58.27;101375.47;5033403;28;20188;-63
2023/03/28 02:18:19;;;;;;;6.50;2.27;;;;;;;17.45;58.13;101374.16;5011786;28;20502;-63
2023/03/28 02:20:45;;;;;;;6.10;2.70;;;;;;;17.46;58.30;101384.38;5029300;28;20410;-63
2023/03/28 02:23:14;;;;;;;6.93;2.30;;;;;;;17.47;57.92;101379.50;5032103;28;20441;-63
2023/03/28 02:25:40;;;;;;;4.50;1.40;;;;;;;17.46;58.22;101383.56;5028802;28;20479;-63
2023/03/28 02:28:06;;;;;;;4.80;1.90;;;;;;;17.48;57.92;101376.31;5049649;28;20398;-63
2023/03/28 02:30:32;;;;;;;4.43;1.53;;;;;;;17.47;57.93;101366.09;5031028;28;20263;-63
2023/03/28 02:33:03;;;;;;;10.40;2.97;;;;;;;17.44;58.10;101363.06;5046882;28;20437;-63
2023/03/28 02:35:44;;;;;;;3.93;1.80;;;;;;;17.44;58.18;101363.91;5035291;28;21220;-63
2023/03/28 02:38:26;;;;;;;4.73;1.90;;;;;;;17.47;58.24;101368.94;5028492;28;20971;-63
2023/03/28 02:41:00;;;;;;;6.93;2.17;;;;;;;17.43;58.01;101367.97;5015177;28;20447;-63
2023/03/28 02:43:33;;;;;;;5.70;2.57;;;;;;;17.44;58.31;101363.06;5028627;28;20461;-63
2023/03/28 02:46:01;;;;;;;4.70;1.90;;;;;;;17.44;58.25;101357.34;5031687;28;20449;-63
2023/03/28 02:48:36;;;;;;;5.93;1.77;;;;;;;17.45;58.40;101365.59;5033352;28;20431;-63
2023/03/28 02:51:02;;;;;;;4.27;1.43;;;;;;;17.42;58.54;101369.16;5035733;28;20413;-63
2023/03/28 02:53:33;;;;;;;5.70;2.20;;;;;;;17.40;58.26;101353.56;5038709;28;20441;-63
2023/03/28 02:56:04;;;;;;;6.90;1.80;;;;;;;17.41;58.21;101361.75;5002578;28;20462;-63
2023/03/28 02:58:56;;;;;;;7.70;1.97;;;;;;;17.40;58.29;101356.41;5055525;28;20873;-63
2023/03/28 03:01:24;;;;;;;6.90;1.80;;;;;;;17.39;58.40;101349.00;5019721;28;20418;-63
2023/03/28 03:03:50;;;;;;;5.80;2.33;;;;;;;17.37;58.57;101352.19;5039714;28;20433;-63
2023/03/28 03:06:16;;;;;;;7.43;1.73;;;;;;;17.38;58.37;101348.16;5087817;28;20464;-63
2023/03/28 03:08:42;;;;;;;5.07;1.40;;;;;;;17.40;58.41;101345.81;5052539;28;20432;-63
2023/03/28 03:11:08;;;;;;;4.83;1.80;;;;;;;17.38;58.40;101353.88;5072927;28;20418;-63
2023/03/28 03:13:33;;;;;;;6.50;2.07;;;;;;;17.39;58.37;101349.00;5044819;28;20446;-63
2023/03/28 03:15:59;;;;;;;5.40;2.10;;;;;;;17.37;58.26;101351.34;5034680;28;20191;-63
2023/03/28 03:18:26;;;;;;;3.23;1.50;;;;;;;17.38;58.36;101353.00;5052840;28;20261;-63
2023/03/28 03:20:51;;;;;;;4.40;1.90;;;;;;;17.40;58.40;101357.22;5070633;28;20475;-63
2023/03/28 03:23:17;;;;;;;4.03;1.60;;;;;;;17.41;58.17;101352.38;5053096;28;20512;-63
2023/03/28 03:25:43;;;;;;;6.80;1.97;;;;;;;17.37;58.48;101346.50;5054879;28;20187;-63
2023/03/28 03:28:09;;;;;;;4.70;1.80;;;;;;;17.38;58.29;101350.16;5034248;28;20179;-63
2023/03/28 03:30:35;;;;;;;3.60;1.50;;;;;;;17.41;57.79;101350.31;5052413;28;20862;-63
2023/03/28 03:33:00;;;;;;;5.27;1.93;;;;;;;17.44;57.86;101346.78;5061239;28;20182;-63
2023/03/28 03:35:32;;;;;;;7.20;1.63;;;;;;;17.43;57.78;101345.13;5069007;28;20191;-63
2023/03/28 03:37:57;;;;;;;3.83;1.40;;;;;;;17.47;57.82;101346.09;5044194;28;20179;-63
2023/03/28 03:40:23;;;;;;;4.23;1.50;;;;;;;17.47;58.08;101346.09;5064810;28;20516;-63
2023/03/28 03:42:48;;;;;;;4.20;1.90;;;;;;;17.42;57.86;101354.88;5062943;28;20184;-63
2023/03/28 03:45:14;;;;;;;5.33;1.67;;;;;;;17.41;58.04;101360.94;5058252;28;20188;-63
2023/03/28 03:47:40;;;;;;;5.30;1.60;;;;;;;17.42;58.15;101349.16;5065539;28;20573;-63
2023/03/28 03:50:06;;;;;;;3.90;1.87;;;;;;;17.44;58.34;101346.78;5051223;28;20445;-63
2023/03/28 03:52:32;;;;;;;3.53;1.70;;;;;;;17.44;58.07;101351.66;5061766;28;20231;-61
2023/03/28 03:54:57;;;;;;;4.03;1.83;;;;;;;17.46;58.42;101352.16;5063931;28;20426;-60
2023/03/28 03:57:23;;;;;;;5.70;2.73;;;;;;;17.22;55.97;101354.81;5056229;28;20214;-61
2023/03/28 03:59:48;;;;;;;6.17;3.30;;;;;;;17.79;55.06;101351.00;5070703;28;20197;-62
2023/03/28 04:02:14;;;;;;;8.40;4.83;;;;;;;18.10;55.03;101339.94;5060090;28;20196;-61
2023/03/28 04:04:40;;;;;;;12.73;4.60;;;;;;;18.09;53.26;101343.13;5066617;28;20175;-61
2023/03/28 04:07:05;;;;;;;10.20;4.27;;;;;;;18.11;53.32;101353.03;5056691;28;20214;-63
2023/03/28 04:09:31;;;;;;;9.10;3.77;;;;;;;18.08;53.74;101347.19;5034109;28;20180;-61
2023/03/28 04:11:56;;;;;;;5.53;3.50;;;;;;;18.15;54.23;101339.69;5055224;28;20195;-61
2023/03/28 04:14:21;;;;;;;7.13;2.90;;;;;;;18.29;54.33;101348.78;5067348;28;20190;-61
2023/03/28 04:16:50;;;;;;;9.70;3.20;;;;;;;18.32;54.19;101359.53;5049532;28;20275;-61
2023/03/28 04:19:18;;;;;;;4.97;2.20;;;;;;;18.28;54.82;101347.13;5052423;28;20610;-61
2023/03/28 04:21:46;;;;;;;7.53;2.50;;;;;;;18.27;55.46;101351.16;5057074;28;21024;-60
2023/03/28 04:24:15;;;;;;;8.40;2.50;;;;;;;18.20;55.87;101348.06;5036963;28;20450;-62
2023/03/28 04:26:44;;;;;;;6.67;2.70;;;;;;;18.25;56.24;101349.84;5070250;28;20410;-61
2023/03/28 04:29:11;;;;;;;6.60;2.37;;;;;;;18.27;55.73;101348.28;5056145;28;20433;-61
2023/03/28 04:31:37;;;;;;;7.00;2.77;;;;;;;18.22;57.23;101350.56;5067659;28;20848;-60
2023/03/28 04:34:04;;;;;;;8.70;2.60;;;;;;;18.26;57.75;101358.06;5032501;28;20406;-62
2023/03/28 04:36:30;;;;;;;4.33;2.40;;;;;;;18.34;57.98;101359.19;5052782;28;20482;-62
2023/03/28 04:38:57;;;;;;;5.93;2.57;;;;;;;18.22;58.23;101359.13;5050335;28;20430;-61
2023/03/28 04:41:24;;;;;;;5.97;2.47;;;;;;;18.23;58.09;101360.81;5059594;28;20872;-62
2023/03/28 04:43:50;;;;;;;9.57;3.13;;;;;;;18.33;58.18;101369.81;5037769;28;20481;-62
2023/03/28 04:46:16;;;;;;;4.40;2.00;;;;;;;18.38;57.79;101368.72;5056591;28;20450;-62
2023/03/28 04:48:41;;;;;;;5.63;2.27;;;;;;;18.27;59.00;101367.50;5068356;28;20441;-60
2023/03/28 04:51:07;;;;;;;4.53;2.20;;;;;;;18.30;59.07;101366.75;5047617;28;20265;-61
2023/03/28 04:53:32;;;;;;;8.47;2.40;;;;;;;18.34;59.43;101377.19;5061699;28;20214;-62
2023/03/28 04:55:58;;;;;;;5.17;2.10;;;;;;;18.35;59.35;101387.44;5049932;28;20238;-63
2023/03/28 04:58:24;;;;;;;6.10;2.00;;;;;;;18.32;59.28;101388.13;5063591;28;20286;-62
2023/03/28 05:00:49;;;;;;;6.93;2.83;;;;;;;18.25;60.08;101384.13;5065260;28;20531;-62
2023/03/28 05:03:19;;;;;;;5.93;2.30;;;;;;;18.17;60.39;101394.47;5072028;28;20285;-63
2023/03/28 05:05:50;;;;;;;7.60;2.53;;;;;;;18.20;60.69;101390.06;5034479;28;20202;-61
2023/03/28 05:08:16;;;;;;;4.10;1.97;;;;;;;18.16;59.42;101394.84;5062318;28;20463;-60
2023/03/28 05:10:42;;;;;;;5.70;2.17;;;;;;;18.06;58.89;101398.97;5055629;28;20524;-61
2023/03/28 05:13:08;;;;;;;6.30;2.50;;;;;;;18.00;58.14;101400.38;5063015;28;20488;-61
2023/03/28 05:15:33;;;;;;;6.50;2.60;;;;;;;17.97;56.64;101403.09;5069434;28;20425;-61
2023/03/28 05:17:59;;;;;;;7.80;2.07;;;;;;;17.91;55.70;101410.22;5067999;28;20207;-61
2023/03/28 05:20:24;;;;;;;7.10;2.60;;;;;;;17.88;55.27;101406.03;5046640;28;20183;-62
2023/03/28 05:22:50;;;;;;;7.70;2.20;;;;;;;17.86;54.70;101411.25;5050850;28;20588;-61
2023/03/28 05:25:16;;;;;;;9.43;2.80;;;;;;;17.86;54.15;101413.28;5052514;28;20194;-61
2023/03/28 05:27:41;;;;;;;7.47;2.67;;;;;;;17.83;54.14;101413.97;5050026;28;20512;-61
2023/03/28 05:30:08;;;;;;;8.87;2.53;;;;;;;17.82;54.50;101421.72;5050341;28;20233;-61
2023/03/28 05:32:34;;;;;;;17.77;2.87;;;;;;;17.81;54.79;101422.06;5070560;28;20270;-62
2023/03/28 05:34:59;;;;;;;10.27;3.43;;;;;;;17.80;55.84;101423.25;5057726;28;20461;-62
2023/03/28 05:37:25;;;;;;;9.90;3.23;;;;;;;17.79;56.34;101427.28;5062604;28;20580;-62
2023/03/28 05:39:51;;;;;;;7.93;2.60;;;;;;;17.78;55.69;101426.47;5058443;28;20270;-62
2023/03/28 05:42:16;;;;;;;10.00;2.83;;;;;;;17.78;55.87;101428.47;5050961;28;20870;-62
2023/03/28 05:44:42;;;;;;;15.13;3.40;;;;;;;17.77;56.20;101433.38;5054518;28;20179;-62
2023/03/28 05:47:07;;;;;;;5.17;2.50;;;;;;;17.79;56.03;101433.00;5070752;28;20625;-62
2023/03/28 05:49:33;;;;;;;13.63;2.57;;;;;;;17.77;56.08;101432.53;5071391;28;20220;-61
2023/03/28 05:51:58;;;;;;;6.30;2.37;;;;;;;17.75;56.29;101434.91;5070954;28;20284;-61
2023/03/28 05:54:24;;;;;;;16.60;3.00;;;;;;;17.73;56.41;101431.53;5064206;28;20188;-61
2023/03/28 05:56:49;;;;;;;10.40;2.70;;;;;;;17.72;56.51;101427.88;5032683;28;20196;-61
2023/03/28 05:59:17;;;;;;;14.43;2.80;;;;;;;17.72;56.54;101430.72;5040993;28;20171;-62
2023/03/28 06:01:44;;;;;;;9.93;2.80;;;;;;;17.74;56.53;101431.19;5069727;28;20190;-62
2023/03/28 06:04:10;;;;;;;9.13;3.03;;;;;;;17.75;56.36;101437.75;5071106;28;20420;-61
2023/03/28 06:06:35;;;;;;;9.07;2.40;;;;;;;17.75;56.29;101432.88;5067629;28;20458;-61
2023/03/28 06:09:01;;;;;;;10.93;3.27;;;;;;;17.71;57.17;101434.75;5050251;28;20176;-61
2023/03/28 06:11:27;;;;;;;14.33;2.93;;;;;;;17.71;56.77;101426.16;5051282;28;20188;-61
2023/03/28 06:13:52;;;;;;;9.63;2.70;;;;;;;17.69;57.05;101428.53;5069467;28;20179;-62
2023/03/28 06:16:18;;;;;;;8.03;2.37;;;;;;;17.70;56.81;101421.66;5069967;28;20268;-62
2023/03/28 06:18:43;;;;;;;8.07;2.33;;;;;;;17.78;56.39;101437.88;5041140;28;20249;-61
2023/03/28 06:21:08;;;;;;;13.63;2.80;;;;;;;17.77;56.66;101426.81;5060058;28;20281;-62
2023/03/28 06:23:34;;;;;;;14.23;2.90;;;;;;;17.75;56.53;101429.19;5070983;28;20195;-62
2023/03/28 06:26:01;;;;;;;5.90;2.20;;;;;;;17.77;56.61;101433.38;5074075;28;20187;-62
2023/03/28 06:28:26;;;;;;;3.80;2.03;;;;;;;17.77;56.80;101436.22;5073319;28;20253;-62
2023/03/28 06:30:51;;;;;;;6.47;2.37;;;;;;;17.72;56.86;101445.00;5065643;28;20444;-62
2023/03/28 06:33:17;;;;;;;5.97;2.40;;;;;;;17.74;56.88;101448.34;5073771;28;20240;-61
2023/03/28 06:35:42;;;;;;;6.20;2.00;;;;;;;17.70;57.28;101457.97;5052917;28;20187;-61
2023/03/28 06:38:08;;;;;;;5.87;2.40;;;;;;;17.69;57.33;101457.09;5048282;28;20191;-61
2023/03/28 06:40:33;;;;;;;7.83;2.30;;;;;;;17.70;56.82;101463.66;5053746;28;20338;-62
2023/03/28 06:42:59;;;;;;;12.73;2.80;;;;;;;17.67;57.26;101464.34;5055762;28;20188;-61
2023/03/28 06:45:24;;;;;;;9.23;2.40;;;;;;;17.65;57.21;101461.84;5053346;28;20167;-61
2023/03/28 06:47:50;;;;;;;8.53;2.40;;;;;;;17.62;57.40;101465.41;5055748;28;20260;-61
2023/03/28 06:50:16;;;;;;;8.10;2.43;;;;;;;17.60;57.59;101464.91;5053050;28;20183;-62
2023/03/28 06:52:41;;;;;;;4.80;1.97;;;;;;;17.61;57.83;101463.72;5053404;28;20626;-62
2023/03/28 06:55:07;;;;;;;5.67;2.50;;;;;;;17.60;57.26;101464.91;5056085;28;20839;-62
2023/03/28 06:57:32;;;;;;;8.07;3.00;;;;;;;17.58;57.43;101467.28;5035260;28;20663;-62
2023/03/28 06:59:58;;;;;;;8.40;2.50;;;;;;;17.59;57.42;101463.22;5056536;28;20848;-60
2023/03/28 07:02:23;;;;;;;6.00;2.20;;;;;;;17.58;57.52;101470.13;5073104;28;20187;-62
2023/03/28 07:04:49;;;;;;;5.97;2.27;;;;;;;17.59;57.52;101468.09;5078799;28;20173;-62
2023/03/28 07:07:14;;;;;;;10.17;2.67;;;;;;;17.58;57.52;101470.13;5039660;28;20256;-61
2023/03/28 07:09:40;;;;;;;6.23;2.00;;;;;;;17.57;57.67;101470.47;5050792;28;20187;-61
2023/03/28 07:12:06;;;;;;;7.40;2.30;;;;;;;17.55;57.57;101467.94;5052854;28;20556;-62
2023/03/28 07:14:31;;;;;;;6.90;2.27;;;;;;;17.56;57.69;101466.75;5050299;28;20180;-61
2023/03/28 07:16:56;;;;;;;5.50;2.37;;;;;;;17.55;57.97;101473.66;5048174;28;20630;-62
2023/03/28 07:19:22;;;;;;;7.23;2.33;;;;;;;17.57;57.83;101479.88;5054813;28;20566;-62
2023/03/28 07:21:48;;;;;;;8.00;2.20;;;;;;;17.57;57.60;101485.59;5051906;28;20199;-61
2023/03/28 07:24:13;;;;;;;4.50;2.43;;;;;;;17.58;57.67;101490.13;5036044;28;20226;-61
2023/03/28 07:26:39;;;;;;;8.93;2.70;;;;;;;17.60;57.58;101489.78;5051637;28;20164;-62
2023/03/28 07:29:04;;;;;;;5.70;2.30;;;;;;;17.57;57.65;101488.44;5051657;28;20184;-62
2023/03/28 07:31:30;;;;;;;5.57;2.27;;;;;;;17.60;57.58;101492.63;5053646;28;20207;-62
2023/03/28 07:33:56;;;;;;;5.90;2.40;;;;;;;17.57;57.54;101487.59;5049010;28;20195;-62
2023/03/28 07:36:22;;;;;;;6.03;2.10;;;;;;;17.56;57.66;101486.75;5071961;28;20195;-61
2023/03/28 07:38:48;;;;;;;4.83;2.17;;;;;;;17.65;57.41;101489.56;5035316;28;20488;-62
2023/03/28 07:41:13;;;;;;;3.73;2.10;;;;;;;17.63;57.30;101489.06;5064752;28;20270;-62
2023/03/28 07:43:39;;;;;;;4.33;1.73;;;;;;;17.58;57.43;101492.13;5054256;28;20171;-62
2023/03/28 07:46:06;;;;;;;5.37;2.27;;;;;;;17.65;57.27;101493.25;5057484;28;20184;-61
2023/03/28 07:48:33;;;;;;;4.47;1.93;;;;;;;17.61;57.18;101491.44;5033642;28;20313;-61
2023/03/28 07:51:00;;;;;;;5.53;2.37;;;;;;;17.59;57.41;101497.50;5051504;28;20430;-61
2023/03/28 07:53:25;;;;;;;6.27;2.23;;;;;;;17.60;57.52;101502.00;5017627;28;21304;-61
2023/03/28 07:55:52;;;;;;;5.87;2.20;;;;;;;17.58;57.38;101498.69;5050177;28;20430;-61
2023/03/28 07:58:17;;;;;;;6.70;2.20;;;;;;;17.61;57.54;101500.81;5053478;28;20171;-62
2023/03/28 08:00:44;;;;;;;4.90;2.03;;;;;;;17.64;57.37;101499.28;5049231;28;20446;-62
2023/03/28 08:03:12;;;;;;;5.47;2.37;;;;;;;17.62;57.44;101504.53;5066198;28;20179;-62
2023/03/28 08:05:38;;;;;;;4.90;1.60;;;;;;;17.62;57.70;101495.97;5077987;28;20437;-61
2023/03/28 08:08:04;;;;;;;4.77;2.30;;;;;;;17.65;57.79;101496.09;5050846;28;20422;-61
2023/03/28 08:10:30;;;;;;;4.07;1.73;;;;;;;17.66;57.56;101500.63;5033325;28;20171;-61
2023/03/28 08:12:55;;;;;;;7.27;2.20;;;;;;;17.67;57.47;101502.31;5053326;28;20202;-62
2023/03/28 08:15:21;;;;;;;4.80;2.00;;;;;;;17.64;57.31;101503.00;5051346;28;20418;-62
2023/03/28 08:17:46;;;;;;;4.83;1.77;;;;;;;17.62;57.41;101502.53;5034369;28;20257;-62
2023/03/28 08:20:12;;;;;;;6.13;1.90;;;;;;;17.63;57.87;101497.63;5052196;28;20164;-61
2023/03/28 08:22:37;;;;;;;6.93;2.10;;;;;;;17.64;57.10;101500.16;5036152;28;20554;-61
2023/03/28 08:25:03;;;;;;;3.97;2.07;;;;;;;17.62;57.70;101508.25;5043543;28;20190;-61
2023/03/28 08:27:28;;;;;;;6.60;2.03;;;;;;;17.62;57.43;101505.38;5043898;28;20183;-61
2023/03/28 08:29:54;;;;;;;5.13;2.20;;;;;;;17.64;57.10;101500.16;5033866;28;20188;-61
2023/03/28 08:32:19;;;;;;;3.00;1.57;;;;;;;17.62;57.13;101510.25;5057640;28;20187;-61
2023/03/28 08:34:45;;;;;;;4.43;1.80;;;;;;;17.61;57.22;101503.69;5068148;28;20176;-61
2023/03/28 08:37:10;;;;;;;4.90;1.70;;;;;;;17.60;57.64;101507.72;5070125;28;20643;-61
2023/03/28 08:39:36;;;;;;;5.30;1.43;;;;;;;17.62;57.48;101505.38;5067040;28;20199;-60
2023/03/28 08:42:14;;;;;;;3.50;2.13;;;;;;;17.60;57.72;101506.91;5071034;28;20179;-61
2023/03/28 08:45:04;;;;;;;5.73;1.97;;;;;;;17.60;57.51;101496.31;5067922;28;20205;-61
2023/03/28 08:47:59;;;;;;;4.43;2.03;;;;;;;17.58;57.34;101504.41;5033172;28;20409;-61
2023/03/28 08:50:31;;;;;;;5.37;1.80;;;;;;;17.61;57.82;101500.81;5045412;28;21150;-61
2023/03/28 08:52:56;;;;;;;4.50;1.90;;;;;;;17.60;57.66;101495.50;5070379;28;20480;-61
2023/03/28 08:55:23;;;;;;;4.37;1.70;;;;;;;17.60;57.41;101499.16;5061532;28;20818;-61
2023/03/28 08:57:50;;;;;;;4.80;1.97;;;;;;;17.60;57.38;101501.19;5032477;28;20192;-61
2023/03/28 09:00:27;;;;;;;3.60;1.80;;;;;;;17.59;57.41;101497.50;5016456;28;20410;-61
2023/03/28 09:02:52;;;;;;;5.47;2.13;;;;;;;17.59;57.50;101500.34;5066196;28;20437;-61
2023/03/28 09:05:36;;;;;;;3.30;1.60;;;;;;;17.55;57.38;101496.50;5080528;28;20424;-61
2023/03/28 09:08:19;;;;;;;3.50;1.73;;;;;;;17.52;57.78;101487.81;5090437;28;20181;-61
2023/03/28 09:10:54;;;;;;;4.80;2.20;;;;;;;17.53;57.50;101493.16;5072164;28;20437;-61
2023/03/28 09:13:55;;;;;;;3.80;1.97;;;;;;;17.53;57.85;101493.16;5031914;28;20460;-61
2023/03/28 09:16:59;;;;;;;7.40;2.33;;;;;;;17.60;57.54;101492.63;5018602;28;20453;-61
2023/03/28 09:19:31;;;;;;;3.70;1.57;;;;;;;17.62;57.57;101491.09;5049733;28;20868;-62
2023/03/28 09:22:18;;;;;;;4.40;2.17;;;;;;;17.57;57.40;101488.44;5032615;28;20505;-61
2023/03/28 09:25:10;;;;;;;2.67;1.57;;;;;;;17.55;57.60;101489.97;5041368;28;20457;-61
2023/03/28 09:27:57;;;;;;;4.40;2.20;;;;;;;17.62;57.55;101491.09;5060882;28;20498;-61
2023/03/28 09:30:44;;;;;;;4.67;1.70;;;;;;;17.63;57.41;101498.47;5070740;28;20389;-61
2023/03/28 09:33:23;;;;;;;4.30;1.90;;;;;;;17.64;57.31;101499.28;5048052;28;20908;-61
2023/03/28 09:35:48;;;;;;;3.40;1.90;;;;;;;17.60;57.54;101490.59;5033110;28;20406;-61
2023/03/28 09:38:21;;;;;;;5.03;1.67;;;;;;;17.56;57.44;101489.59;5049771;28;20468;-62
2023/03/28 09:40:48;;;;;;;6.20;2.13;;;;;;;17.59;57.86;101496.66;5047588;28;20180;-61
2023/03/28 09:43:52;;;;;;;14.50;2.33;;;;;;;17.60;58.03;101492.63;5058539;28;20517;-61
2023/03/28 09:46:19;;;;;;;6.47;1.83;;;;;;;17.62;57.51;101488.25;4987925;28;20429;-61
2023/03/28 09:48:45;;;;;;;4.50;2.13;;;;;;;17.59;57.42;101488.06;5037701;28;20441;-61
2023/03/28 09:51:15;;;;;;;3.67;1.57;;;;;;;17.58;57.97;101478.69;5032161;28;20865;-60
2023/03/28 09:53:41;;;;;;;3.80;1.93;;;;;;;17.59;57.47;101488.06;5015457;28;20318;-61
2023/03/28 09:56:27;;;;;;;3.00;1.70;;;;;;;17.59;57.69;101485.22;5050429;28;20434;-62
2023/03/28 09:58:57;;;;;;;5.10;2.03;;;;;;;17.58;57.56;101475.84;5052583;28;20190;-61
2023/03/28 10:01:52;;;;;;;4.20;1.80;;;;;;;17.60;57.61;101484.06;5045468;28;20443;-60
2023/03/28 10:04:30;;;;;;;3.73;2.17;;;;;;;17.58;57.58;101477.84;5041186;28;20810;-62
2023/03/28 10:07:16;;;;;;;6.47;2.40;;;;;;;17.62;57.63;101485.38;5054316;28;20836;-60
2023/03/28 10:09:47;;;;;;;2.87;1.60;;;;;;;17.60;57.83;101470.59;5050690;28;20442;-62
2023/03/28 10:12:23;;;;;;;4.40;2.10;;;;;;;17.60;57.50;101475.50;5035281;28;20427;-61
2023/03/28 10:14:48;;;;;;;4.10;1.90;;;;;;;17.58;57.75;101472.97;5017428;28;20456;-61
2023/03/28 10:17:27;;;;;;;4.20;1.47;;;;;;;17.58;57.66;101472.97;5033891;28;20459;-61
2023/03/28 10:19:52;;;;;;;4.80;1.80;;;;;;;17.58;57.62;101461.56;5036157;28;20258;-60
2023/03/28 10:22:23;;;;;;;3.57;1.40;;;;;;;17.56;57.79;101469.63;5032660;28;20431;-62
2023/03/28 10:24:48;;;;;;;3.60;1.40;;;;;;;17.58;57.33;101466.44;5043505;28;20175;-61
2023/03/28 10:27:24;;;;;;;4.07;1.33;;;;;;;17.56;57.59;101465.94;5053696;28;20416;-61
2023/03/28 10:29:54;;;;;;;3.90;2.00;;;;;;;17.59;57.48;101454.66;5031914;28;20210;-61
2023/03/28 10:32:26;;;;;;;4.13;1.90;;;;;;;17.59;57.45;101456.66;5042126;28;20422;-61
2023/03/28 10:35:06;;;;;;;3.00;1.67;;;;;;;17.59;57.55;101457.53;5033422;28;20772;-62
2023/03/28 10:37:32;;;;;;;4.10;1.80;;;;;;;17.52;57.67;101456.41;5019575;28;20474;-61
2023/03/28 10:40:23;;;;;;;5.20;2.00;;;;;;;17.54;57.36;101454.88;5052291;28;20514;-61
2023/03/28 10:42:49;;;;;;;4.40;1.53;;;;;;;17.60;57.57;101449.81;5041600;28;20184;-61
2023/03/28 10:45:30;;;;;;;3.20;1.40;;;;;;;17.53;57.67;101453.19;5017799;28;20427;-61
2023/03/28 10:47:56;;;;;;;4.73;1.43;;;;;;;17.57;57.71;101448.47;5047467;28;20439;-62
2023/03/28 10:50:34;;;;;;;4.33;1.70;;;;;;;17.59;57.73;101448.09;5015964;28;20403;-61
2023/03/28 10:53:19;;;;;;;5.30;1.63;;;;;;;17.57;57.71;101448.47;5016646;28;20506;-61
2023/03/28 10:56:17;;;;;;;3.37;1.70;;;;;;;17.54;57.63;101443.44;5033860;28;20419;-61
2023/03/28 10:58:43;;;;;;;4.20;1.70;;;;;;;17.69;57.31;101442.81;5027138;28;20530;-61
2023/03/28 11:01:10;;;;;;;6.60;1.83;;;;;;;17.73;57.11;101446.66;5037077;28;20600;-60
2023/03/28 11:03:50;;;;;;;2.60;1.60;;;;;;;17.74;56.78;101445.47;5032089;28;20497;-62
2023/03/28 11:06:25;;;;;;;3.47;1.60;;;;;;;17.70;57.00;101441.63;5065995;28;20520;-61
2023/03/28 11:08:56;;;;;;;4.63;1.60;;;;;;;17.70;56.98;101435.09;5050108;28;20436;-62
2023/03/28 11:11:52;;;;;;;2.47;1.43;;;;;;;17.59;57.43;101428.97;5052701;28;20431;-62
2023/03/28 11:14:36;;;;;;;2.53;1.33;;;;;;;17.59;57.71;101428.97;5035310;28;20457;-61
2023/03/28 11:17:18;;;;;;;2.30;1.03;;;;;;;17.63;57.23;101415.66;5033026;28;21019;-62
2023/03/28 11:20:04;;;;;;;3.20;1.50;;;;;;;17.62;57.59;101416.84;5041084;28;21154;-61
2023/03/28 11:22:52;;;;;;;3.67;1.70;;;;;;;17.62;57.37;101427.44;5052376;28;20440;-61
2023/03/28 11:25:27;;;;;;;3.30;1.77;;;;;;;17.60;57.40;101407.78;5034938;28;20932;-61
2023/03/28 11:27:54;;;;;;;3.50;1.30;;;;;;;17.63;57.49;101407.09;5023639;28;20528;-61
2023/03/28 11:30:21;;;;;;;2.17;1.47;;;;;;;17.63;57.55;101411.97;5036272;28;20433;-61
2023/03/28 11:32:54;;;;;;;4.33;2.17;;;;;;;17.62;57.37;101405.44;5047206;28;20454;-61
2023/03/28 11:35:31;;;;;;;3.33;1.53;;;;;;;17.62;57.51;101394.00;5052672;28;20848;-61
2023/03/28 11:38:13;;;;;;;3.93;1.53;;;;;;;17.64;57.73;101385.06;5052160;28;20449;-61